Time;durP1;ratioP1;P1;durP2;ratioP2;P2;SDS_P1;SDS_P2;PMS_P1;PMS_P2;Temp;Humidity;BMP_temperature;BMP_pressure;BME280_temperature;BME280_humidity;BME280_pressure;Samples;Min_cycle;Max_cycle;Signal;HPM_P1;HPM_P2
2022/03/13 00:00:04;;;;;;;28.98;16.42;;;3.80;99.90;;;;;;1861379;76;21221;-76
2022/03/13 00:02:33;;;;;;;31.90;17.02;;;3.70;99.90;;;;;;1865656;76;21098;-76
2022/03/13 00:05:01;;;;;;;38.17;16.30;;;3.60;99.90;;;;;;1877365;74;21070;-75
2022/03/13 00:07:30;;;;;;;28.62;14.30;;;3.50;99.90;;;;;;1846364;76;21078;-76
2022/03/13 00:09:57;;;;;;;22.05;14.28;;;3.60;99.90;;;;;;1868213;76;21091;-76
2022/03/13 00:12:29;;;;;;;29.00;14.63;;;3.50;99.90;;;;;;1849801;76;21142;-76
2022/03/13 00:15:02;;;;;;;29.23;13.88;;;3.50;99.90;;;;;;1865598;76;21049;-75
2022/03/13 00:17:29;;;;;;;24.90;13.15;;;3.40;99.90;;;;;;1856447;74;21457;-76
2022/03/13 00:20:00;;;;;;;22.40;14.03;;;3.40;99.90;;;;;;1871883;75;21152;-75
2022/03/13 00:22:29;;;;;;;28.92;13.72;;;3.30;99.90;;;;;;1859377;76;21145;-76
2022/03/13 00:24:57;;;;;;;21.55;13.25;;;3.30;99.90;;;;;;1846334;76;21054;-76
2022/03/13 00:27:24;;;;;;;24.40;13.83;;;3.20;99.90;;;;;;1846332;76;21070;-76
2022/03/13 00:29:51;;;;;;;24.07;12.88;;;3.10;99.90;;;;;;1859432;76;21528;-76
2022/03/13 00:32:19;;;;;;;20.68;13.30;;;3.10;99.90;;;;;;1872290;76;21130;-76
2022/03/13 00:34:46;;;;;;;20.88;13.35;;;3.00;99.90;;;;;;1846259;76;21201;-76
2022/03/13 00:37:13;;;;;;;20.17;11.88;;;3.00;99.90;;;;;;1865863;74;21467;-76
2022/03/13 00:39:41;;;;;;;23.92;12.75;;;2.90;99.90;;;;;;1865571;76;21087;-76
2022/03/13 00:42:09;;;;;;;21.50;12.88;;;2.90;99.90;;;;;;1861798;76;21208;-75
2022/03/13 00:44:36;;;;;;;22.50;12.23;;;2.80;99.90;;;;;;1852732;76;21153;-75
2022/03/13 00:47:05;;;;;;;27.50;15.98;;;2.80;99.90;;;;;;1852697;76;21079;-76
2022/03/13 00:49:33;;;;;;;32.60;18.67;;;2.80;99.90;;;;;;1866191;76;21455;-74
2022/03/13 00:52:01;;;;;;;36.53;19.27;;;2.80;99.90;;;;;;1858766;76;21140;-75
2022/03/13 00:54:29;;;;;;;30.37;17.10;;;2.80;99.90;;;;;;1856805;76;21086;-75
2022/03/13 00:56:56;;;;;;;34.27;17.50;;;2.80;99.90;;;;;;1873263;76;21085;-75
2022/03/13 00:59:24;;;;;;;23.98;14.75;;;2.90;99.90;;;;;;1862985;76;21152;-76
2022/03/13 01:01:51;;;;;;;22.82;14.55;;;2.80;99.90;;;;;;1856155;74;21033;-76
2022/03/13 01:04:19;;;;;;;25.15;14.23;;;2.80;99.90;;;;;;1861709;74;21193;-71
2022/03/13 01:06:46;;;;;;;21.62;13.98;;;2.80;99.90;;;;;;1881779;75;21054;-75
2022/03/13 01:09:13;;;;;;;26.50;13.90;;;2.80;99.90;;;;;;1848437;76;21062;-75
2022/03/13 01:11:41;;;;;;;25.88;14.40;;;2.80;99.90;;;;;;1843794;76;21090;-75
2022/03/13 01:14:08;;;;;;;21.68;14.03;;;2.70;99.90;;;;;;1860690;76;21066;-75
2022/03/13 01:16:39;;;;;;;27.70;14.75;;;2.70;99.90;;;;;;1853043;76;21145;-75
2022/03/13 01:19:05;;;;;;;;;;;2.60;99.90;;;;;;1868880;76;21157;-75
2022/03/13 01:21:34;;;;;;;26.02;12.68;;;2.60;99.90;;;;;;1856219;74;20123;-76
2022/03/13 01:24:13;;;;;;;27.50;13.83;;;2.50;99.90;;;;;;1863699;76;21415;-75
2022/03/13 01:26:41;;;;;;;26.17;13.43;;;2.40;99.90;;;;;;1852764;76;21087;-73
2022/03/13 01:29:12;;;;;;;33.50;12.85;;;2.20;99.90;;;;;;1871571;76;21090;-73
2022/03/13 01:31:41;;;;;;;18.57;11.38;;;2.20;99.90;;;;;;1848871;76;21070;-75
2022/03/13 01:34:11;;;;;;;19.75;12.10;;;2.20;99.90;;;;;;1848967;76;21091;-75
2022/03/13 01:36:38;;;;;;;20.55;11.43;;;2.10;99.90;;;;;;1873315;76;21122;-75
2022/03/13 01:39:10;;;;;;;20.55;11.78;;;2.10;99.90;;;;;;1878695;76;21078;-75
2022/03/13 01:41:35;;;;;;;16.37;10.82;;;2.10;99.90;;;;;;1845286;76;21066;-75
2022/03/13 01:44:03;;;;;;;21.17;11.93;;;2.10;99.90;;;;;;1849887;76;21091;-75
2022/03/13 01:46:30;;;;;;;19.85;12.20;;;2.00;99.90;;;;;;1883216;76;21048;-75
2022/03/13 01:48:59;;;;;;;20.52;12.58;;;2.00;99.90;;;;;;1860951;75;21483;-75
2022/03/13 01:51:27;;;;;;;19.15;12.85;;;1.90;99.90;;;;;;1868109;74;21137;-74
2022/03/13 01:53:56;;;;;;;19.85;12.43;;;2.00;99.90;;;;;;1878498;74;21139;-75
2022/03/13 01:56:23;;;;;;;25.88;13.28;;;2.00;99.90;;;;;;1854940;76;21081;-75
2022/03/13 01:58:53;;;;;;;21.77;14.18;;;2.00;99.90;;;;;;1845878;76;21133;-75
2022/03/13 02:01:21;;;;;;;26.15;14.47;;;1.80;99.90;;;;;;1873114;75;21451;-75
2022/03/13 02:03:49;;;;;;;23.45;14.25;;;1.90;99.90;;;;;;1871913;74;21087;-74
2022/03/13 02:06:16;;;;;;;21.48;13.68;;;1.90;99.90;;;;;;1854869;76;21137;-74
2022/03/13 02:08:45;;;;;;;20.77;13.90;;;1.80;99.90;;;;;;1859456;76;21074;-75
2022/03/13 02:11:17;;;;;;;19.60;14.38;;;1.70;99.90;;;;;;1865399;75;21063;-75
2022/03/13 02:13:44;;;;;;;23.62;15.38;;;1.70;99.90;;;;;;1859184;76;21074;-75
2022/03/13 02:16:11;;;;;;;23.60;14.68;;;1.60;99.90;;;;;;1877793;76;21157;-75
2022/03/13 02:18:40;;;;;;;24.55;13.80;;;1.60;99.90;;;;;;1858879;76;21079;-75
2022/03/13 02:21:09;;;;;;;22.77;13.53;;;1.50;99.90;;;;;;1864889;75;21140;-74
2022/03/13 02:23:37;;;;;;;20.50;13.98;;;1.50;99.90;;;;;;1854653;76;21193;-75
2022/03/13 02:26:05;;;;;;;25.45;14.80;;;1.40;99.90;;;;;;1865227;76;21478;-75
2022/03/13 02:28:43;;;;;;;34.20;14.05;;;1.40;99.90;;;;;;1852404;76;21169;-75
2022/03/13 02:31:13;;;;;;;26.02;14.75;;;1.40;99.90;;;;;;1849804;75;21553;-75
2022/03/13 02:33:42;;;;;;;25.15;14.25;;;1.40;99.90;;;;;;1852424;76;21081;-75
2022/03/13 02:36:35;;;;;;;22.37;14.90;;;1.40;99.90;;;;;;1846016;76;21078;-76
2022/03/13 02:39:06;;;;;;;27.22;15.03;;;1.30;99.90;;;;;;1865342;74;21080;-75
2022/03/13 02:41:34;;;;;;;22.60;14.07;;;1.20;99.90;;;;;;1857167;76;21157;-75
2022/03/13 02:44:02;;;;;;;22.27;13.65;;;1.30;99.90;;;;;;1855963;75;21084;-75
2022/03/13 02:46:58;;;;;;;23.73;14.60;;;1.30;99.90;;;;;;1878438;75;21131;-75
2022/03/13 02:49:27;;;;;;;20.75;12.60;;;1.30;99.90;;;;;;1853765;76;21079;-75
2022/03/13 02:51:56;;;;;;;19.12;11.25;;;1.20;99.90;;;;;;1846049;76;21069;-74
2022/03/13 02:54:23;;;;;;;23.40;13.95;;;1.20;99.90;;;;;;1846025;76;21246;-75
2022/03/13 02:56:51;;;;;;;25.77;13.65;;;1.10;99.90;;;;;;1856855;76;21144;-75
2022/03/13 02:59:18;;;;;;;22.42;14.58;;;1.10;99.90;;;;;;1845997;76;21083;-74
2022/03/13 03:01:46;;;;;;;24.75;14.80;;;1.10;99.90;;;;;;1858911;76;21079;-75
2022/03/13 03:04:13;;;;;;;26.40;15.00;;;1.00;99.90;;;;;;1855681;76;21157;-74
2022/03/13 03:06:42;;;;;;;24.77;15.48;;;1.10;99.90;;;;;;1863951;74;21596;-75
2022/03/13 03:09:10;;;;;;;30.75;16.32;;;1.00;99.90;;;;;;1851692;76;21074;-75
2022/03/13 03:11:37;;;;;;;24.45;15.88;;;1.10;99.90;;;;;;1870490;76;21051;-75
2022/03/13 03:14:04;;;;;;;25.97;15.28;;;1.10;99.90;;;;;;1868880;75;21478;-75
2022/03/13 03:16:32;;;;;;;19.98;14.38;;;1.10;99.90;;;;;;1852148;76;21506;-74
2022/03/13 03:18:59;;;;;;;29.60;15.80;;;1.10;99.90;;;;;;1865490;76;21074;-74
2022/03/13 03:21:27;;;;;;;27.32;16.42;;;1.00;99.90;;;;;;1859494;76;21082;-74
2022/03/13 03:23:54;;;;;;;21.60;14.73;;;1.00;99.90;;;;;;1866655;75;21126;-74
2022/03/13 03:26:21;;;;;;;27.07;15.78;;;0.90;99.90;;;;;;1850926;76;21112;-74
2022/03/13 03:28:49;;;;;;;21.30;14.38;;;1.00;99.90;;;;;;1870342;75;21145;-74
2022/03/13 03:31:16;;;;;;;22.37;13.85;;;1.00;99.90;;;;;;1860148;76;21474;-75
2022/03/13 03:33:43;;;;;;;23.62;14.25;;;1.00;99.90;;;;;;1865394;75;21048;-74
2022/03/13 03:36:15;;;;;;;23.73;13.83;;;0.90;99.90;;;;;;1865261;76;21075;-74
2022/03/13 03:38:42;;;;;;;18.57;13.15;;;0.80;99.90;;;;;;1860718;75;21168;-75
2022/03/13 03:41:10;;;;;;;25.97;14.43;;;0.80;99.90;;;;;;1871945;76;21479;-74
2022/03/13 03:43:37;;;;;;;32.00;16.37;;;0.80;99.90;;;;;;1871798;75;21084;-75
2022/03/13 03:46:04;;;;;;;20.72;13.75;;;0.70;99.90;;;;;;1858836;76;21137;-75
2022/03/13 03:48:32;;;;;;;24.95;14.65;;;0.70;99.90;;;;;;1869289;75;21136;-74
2022/03/13 03:50:59;;;;;;;26.82;13.83;;;0.70;99.90;;;;;;1851065;76;21538;-75
2022/03/13 03:53:26;;;;;;;28.52;14.95;;;0.70;99.90;;;;;;1845977;76;21133;-74
2022/03/13 03:55:54;;;;;;;21.55;14.10;;;0.60;99.90;;;;;;1845843;76;21537;-74
2022/03/13 03:58:21;;;;;;;24.92;14.98;;;0.60;99.90;;;;;;1858996;75;21481;-73
2022/03/13 04:00:49;;;;;;;25.12;14.98;;;0.50;99.90;;;;;;1850647;76;21347;-74
2022/03/13 04:03:16;;;;;;;22.22;15.45;;;0.50;99.90;;;;;;1852565;76;21137;-74
2022/03/13 04:05:43;;;;;;;27.65;15.95;;;0.50;99.90;;;;;;1845891;76;21529;-75
2022/03/13 04:08:12;;;;;;;25.05;15.05;;;0.50;99.90;;;;;;1841369;76;21119;-74
2022/03/13 04:10:41;;;;;;;24.10;15.58;;;0.50;99.90;;;;;;1857880;74;21086;-74
2022/03/13 04:13:08;;;;;;;28.67;16.77;;;0.50;99.90;;;;;;1859186;76;21130;-75
2022/03/13 04:15:36;;;;;;;28.65;16.52;;;0.40;99.90;;;;;;1848524;76;21532;-74
2022/03/13 04:18:04;;;;;;;26.00;14.58;;;0.40;99.90;;;;;;1846098;76;21084;-75
2022/03/13 04:20:31;;;;;;;22.42;14.93;;;0.40;99.90;;;;;;1854613;76;21149;-75
2022/03/13 04:22:58;;;;;;;21.93;13.53;;;0.50;99.90;;;;;;1875804;76;21067;-75
2022/03/13 04:25:26;;;;;;;21.57;13.22;;;0.40;99.90;;;;;;1854361;76;21498;-75
2022/03/13 04:27:55;;;;;;;24.40;13.00;;;0.30;99.90;;;;;;1869185;76;21078;-74
2022/03/13 04:30:22;;;;;;;24.32;14.18;;;0.30;99.90;;;;;;1861125;76;21103;-75
2022/03/13 04:32:49;;;;;;;25.25;13.65;;;0.30;99.90;;;;;;1860005;73;21037;-73
2022/03/13 04:35:18;;;;;;;19.90;13.08;;;0.30;99.90;;;;;;1861775;74;21204;-73
2022/03/13 04:37:45;;;;;;;28.42;13.98;;;0.40;99.90;;;;;;1852221;76;21141;-75
2022/03/13 04:40:13;;;;;;;24.75;14.35;;;0.40;99.90;;;;;;1862392;76;21467;-74
2022/03/13 04:42:40;;;;;;;23.60;15.13;;;0.40;99.90;;;;;;1870999;76;21199;-74
2022/03/13 04:45:08;;;;;;;20.45;13.28;;;0.50;99.90;;;;;;1852892;76;21137;-75
2022/03/13 04:47:36;;;;;;;29.10;13.43;;;0.50;99.90;;;;;;1852382;76;21144;-74
2022/03/13 04:50:03;;;;;;;22.70;12.98;;;0.50;99.90;;;;;;1865346;75;21428;-73
2022/03/13 04:52:31;;;;;;;25.05;12.80;;;0.40;99.90;;;;;;1865688;76;21165;-75
2022/03/13 04:54:58;;;;;;;23.73;12.73;;;0.30;99.90;;;;;;1855840;76;21467;-74
2022/03/13 04:57:27;;;;;;;22.55;12.78;;;0.30;99.90;;;;;;1865324;76;21199;-74
2022/03/13 04:59:54;;;;;;;21.33;12.80;;;0.20;99.90;;;;;;1871905;75;21540;-74
2022/03/13 05:02:21;;;;;;;22.42;12.53;;;0.30;99.90;;;;;;1869842;75;21157;-75
2022/03/13 05:04:49;;;;;;;17.67;11.93;;;0.30;99.90;;;;;;1874613;75;21479;-75
2022/03/13 05:07:18;;;;;;;20.35;11.50;;;0.20;99.90;;;;;;1872908;76;21144;-75
2022/03/13 05:09:45;;;;;;;15.78;11.60;;;0.20;99.90;;;;;;1857079;75;21146;-75
2022/03/13 05:12:14;;;;;;;19.52;11.38;;;0.20;99.90;;;;;;1850183;76;21208;-74
2022/03/13 05:14:41;;;;;;;21.37;12.70;;;0.10;99.90;;;;;;1865399;76;21060;-75
2022/03/13 05:17:10;;;;;;;16.27;11.65;;;0.10;99.90;;;;;;1859985;76;21055;-74
2022/03/13 05:19:38;;;;;;;19.85;11.93;;;0.10;99.90;;;;;;1841434;77;21080;-74
2022/03/13 05:22:06;;;;;;;18.85;12.03;;;0.10;99.90;;;;;;1876477;74;21102;-75
2022/03/13 05:24:33;;;;;;;21.82;12.58;;;0.10;99.90;;;;;;1862333;76;21087;-75
2022/03/13 05:27:00;;;;;;;20.02;12.23;;;0.10;99.90;;;;;;1862391;74;21148;-75
2022/03/13 05:29:28;;;;;;;22.37;13.35;;;0.20;99.90;;;;;;1863886;76;21076;-73
2022/03/13 05:31:55;;;;;;;24.10;13.40;;;0.20;99.90;;;;;;1846057;76;21577;-75
2022/03/13 05:34:22;;;;;;;20.75;13.78;;;0.20;99.90;;;;;;1862401;76;21076;-74
2022/03/13 05:36:49;;;;;;;23.02;11.95;;;0.20;99.90;;;;;;1862127;74;21503;-74
2022/03/13 05:39:17;;;;;;;22.93;14.35;;;0.30;99.90;;;;;;1865048;76;21203;-74
2022/03/13 05:41:44;;;;;;;31.27;15.68;;;0.20;99.90;;;;;;1853765;76;21129;-74
2022/03/13 05:44:12;;;;;;;36.17;16.65;;;0.20;99.90;;;;;;1851728;76;21540;-74
2022/03/13 05:46:41;;;;;;;55.70;23.62;;;0.30;99.90;;;;;;1852458;76;21086;-74
2022/03/13 05:49:09;;;;;;;39.48;19.57;;;0.30;99.90;;;;;;1856367;76;21150;-75
2022/03/13 05:51:37;;;;;;;36.55;18.07;;;0.20;99.90;;;;;;1863329;76;21086;-75
2022/03/13 05:54:04;;;;;;;28.25;16.97;;;0.30;99.90;;;;;;1852498;76;21099;-75
2022/03/13 05:56:32;;;;;;;29.27;16.35;;;0.30;99.90;;;;;;1828364;77;21067;-74
2022/03/13 05:58:59;;;;;;;25.70;15.40;;;0.20;99.90;;;;;;1865405;76;21055;-74
2022/03/13 06:01:26;;;;;;;23.22;14.40;;;0.30;99.90;;;;;;1853324;75;21078;-74
2022/03/13 06:03:54;;;;;;;20.55;13.78;;;0.30;99.90;;;;;;1866086;76;21141;-74
2022/03/13 06:06:21;;;;;;;19.92;12.13;;;0.40;99.90;;;;;;1880579;76;21565;-75
2022/03/13 06:08:50;;;;;;;20.17;11.93;;;0.40;99.90;;;;;;1852364;76;21144;-75
2022/03/13 06:11:17;;;;;;;19.73;12.00;;;0.50;99.90;;;;;;1850543;76;21083;-76
2022/03/13 06:13:45;;;;;;;19.85;12.68;;;0.60;99.90;;;;;;1865309;76;21058;-75
2022/03/13 06:16:12;;;;;;;18.95;12.58;;;0.50;99.90;;;;;;1845978;76;21047;-74
2022/03/13 06:18:39;;;;;;;21.17;12.90;;;0.50;99.90;;;;;;1871733;76;21185;-74
2022/03/13 06:21:07;;;;;;;28.30;13.38;;;0.50;99.90;;;;;;1865001;76;21207;-75
2022/03/13 06:23:34;;;;;;;28.35;12.55;;;0.50;99.90;;;;;;1853620;76;21189;-75
2022/03/13 06:26:05;;;;;;;18.87;12.33;;;0.50;99.90;;;;;;1858613;75;21078;-74
2022/03/13 06:28:31;;;;;;;19.25;12.58;;;0.50;99.90;;;;;;1845889;76;21180;-74
2022/03/13 06:31:00;;;;;;;19.37;12.98;;;0.60;99.90;;;;;;1877093;76;21144;-74
2022/03/13 06:33:30;;;;;;;28.05;13.18;;;0.60;99.90;;;;;;1854298;75;21153;-74
2022/03/13 06:35:59;;;;;;;16.85;11.83;;;0.70;99.90;;;;;;1845774;76;21424;-74
2022/03/13 06:38:27;;;;;;;23.67;13.30;;;0.80;99.90;;;;;;1845859;76;21073;-73
2022/03/13 06:40:54;;;;;;;24.02;13.10;;;0.90;99.90;;;;;;1846711;76;21483;-74
2022/03/13 06:43:22;;;;;;;27.73;13.62;;;1.00;99.90;;;;;;1846051;76;21067;-72
2022/03/13 06:45:50;;;;;;;19.23;12.78;;;1.00;99.90;;;;;;1852325;76;21148;-73
2022/03/13 06:48:21;;;;;;;20.05;12.90;;;1.10;99.90;;;;;;1852494;76;21528;-72
2022/03/13 06:50:46;;;;;;;19.05;11.48;;;1.10;99.90;;;;;;1848471;76;21087;-73
2022/03/13 06:53:13;;;;;;;20.08;12.03;;;1.10;99.90;;;;;;1846075;76;21109;-73
2022/03/13 06:55:41;;;;;;;20.37;11.78;;;1.20;99.90;;;;;;1864095;76;21132;-73
2022/03/13 06:58:09;;;;;;;17.20;11.80;;;1.20;99.90;;;;;;1853208;76;21459;-73
2022/03/13 07:00:36;;;;;;;15.90;10.95;;;1.30;99.90;;;;;;1858203;76;21124;-72
2022/03/13 07:03:03;;;;;;;25.68;12.40;;;1.50;99.90;;;;;;1858822;76;21076;-72
2022/03/13 07:05:31;;;;;;;16.48;12.00;;;1.60;99.90;;;;;;1861265;76;21470;-74
2022/03/13 07:07:58;;;;;;;18.57;11.53;;;1.70;99.90;;;;;;1852418;76;21067;-74
2022/03/13 07:10:25;;;;;;;18.20;10.78;;;1.80;99.90;;;;;;1847400;76;21075;-75
2022/03/13 07:12:55;;;;;;;17.87;11.55;;;1.80;99.90;;;;;;1857256;75;21231;-74
2022/03/13 07:15:22;;;;;;;16.60;11.00;;;1.90;99.90;;;;;;1859886;76;21099;-72
2022/03/13 07:17:49;;;;;;;20.27;10.70;;;2.10;99.90;;;;;;1867033;76;21495;-72
2022/03/13 07:20:17;;;;;;;22.60;10.63;;;2.30;99.90;;;;;;1857185;74;21156;-74
2022/03/13 07:22:45;;;;;;;17.37;11.00;;;2.30;99.90;;;;;;1860147;76;21086;-75
2022/03/13 07:25:13;;;;;;;21.02;12.07;;;2.40;99.90;;;;;;1865264;76;21136;-73
2022/03/13 07:27:40;;;;;;;18.32;10.60;;;2.60;99.90;;;;;;1861119;76;21478;-75
2022/03/13 07:30:09;;;;;;;16.95;11.28;;;2.60;99.90;;;;;;1858880;76;21074;-72
2022/03/13 07:32:36;;;;;;;28.00;10.58;;;2.70;99.90;;;;;;1870265;76;21079;-73
2022/03/13 07:35:04;;;;;;;16.45;10.08;;;2.70;99.90;;;;;;1865563;76;21137;-76
2022/03/13 07:37:31;;;;;;;14.95;9.80;;;2.80;99.90;;;;;;1851338;76;21180;-76
2022/03/13 07:40:01;;;;;;;19.05;10.58;;;2.90;99.90;;;;;;1875391;74;21130;-76
2022/03/13 07:42:28;;;;;;;30.35;10.03;;;3.00;99.90;;;;;;1849761;76;21012;-74
2022/03/13 07:44:55;;;;;;;14.90;9.23;;;3.10;99.90;;;;;;1853193;76;21056;-75
2022/03/13 07:47:25;;;;;;;14.25;9.70;;;3.20;99.90;;;;;;1847936;76;21132;-74
2022/03/13 07:49:53;;;;;;;15.00;9.70;;;3.30;99.90;;;;;;1854201;76;21158;-75
2022/03/13 07:52:20;;;;;;;15.45;8.30;;;3.50;99.90;;;;;;1867320;76;21083;-75
2022/03/13 07:54:47;;;;;;;14.18;9.10;;;3.60;99.90;;;;;;1845954;76;21144;-75
2022/03/13 07:57:15;;;;;;;18.12;10.23;;;3.80;99.90;;;;;;1845755;76;21234;-76
2022/03/13 07:59:42;;;;;;;16.67;9.03;;;3.90;99.90;;;;;;1854921;76;21189;-75
2022/03/13 08:02:10;;;;;;;12.35;8.85;;;4.00;99.90;;;;;;1871332;74;21095;-76
2022/03/13 08:04:39;;;;;;;19.30;8.73;;;4.10;99.90;;;;;;1864971;76;21145;-76
2022/03/13 08:07:06;;;;;;;13.85;8.18;;;4.20;99.90;;;;;;1861847;76;21557;-76
2022/03/13 08:09:35;;;;;;;16.48;9.83;;;4.50;99.90;;;;;;1868904;76;21153;-75
2022/03/13 08:12:03;;;;;;;14.28;8.48;;;4.60;99.90;;;;;;1857850;76;21172;-76
2022/03/13 08:14:31;;;;;;;14.35;8.25;;;4.70;99.90;;;;;;1852340;75;21093;-76
2022/03/13 08:16:58;;;;;;;15.00;8.30;;;5.00;99.90;;;;;;1852939;75;21170;-75
2022/03/13 08:19:25;;;;;;;21.10;8.80;;;5.10;99.90;;;;;;1845803;76;21071;-75
2022/03/13 08:21:53;;;;;;;13.83;8.55;;;5.30;99.90;;;;;;1860771;76;21483;-75
2022/03/13 08:24:20;;;;;;;19.95;9.33;;;5.50;99.90;;;;;;1850718;76;21074;-75
2022/03/13 08:26:48;;;;;;;15.45;8.48;;;5.70;99.90;;;;;;1846874;76;21078;-76
2022/03/13 08:29:16;;;;;;;15.18;9.20;;;5.90;99.90;;;;;;1850756;76;21565;-75
2022/03/13 08:31:43;;;;;;;13.35;9.63;;;6.30;99.90;;;;;;1858842;76;21502;-76
2022/03/13 08:34:10;;;;;;;17.48;10.10;;;6.40;99.90;;;;;;1845953;76;21086;-76
2022/03/13 08:36:40;;;;;;;18.65;10.80;;;6.80;99.90;;;;;;1862826;76;21086;-76
2022/03/13 08:39:09;;;;;;;16.85;10.75;;;6.80;99.90;;;;;;1830072;76;21078;-76
2022/03/13 08:41:37;;;;;;;15.63;10.38;;;7.00;99.90;;;;;;1859065;76;21071;-75
2022/03/13 08:44:08;;;;;;;16.50;10.63;;;7.10;99.90;;;;;;1873920;75;21082;-76
2022/03/13 08:46:35;;;;;;;20.92;10.93;;;7.20;99.90;;;;;;1857382;76;21214;-76
2022/03/13 08:49:03;;;;;;;19.17;10.90;;;7.40;99.90;;;;;;1841075;76;21092;-76
2022/03/13 08:51:32;;;;;;;23.18;11.03;;;7.70;99.90;;;;;;1868247;75;21136;-76
2022/03/13 08:53:59;;;;;;;17.37;11.22;;;7.90;99.90;;;;;;1849632;76;21083;-75
2022/03/13 08:56:26;;;;;;;18.20;11.38;;;8.10;99.90;;;;;;1874431;75;21070;-76
2022/03/13 08:58:55;;;;;;;15.75;10.50;;;8.60;99.90;;;;;;1847911;76;21520;-76
2022/03/13 09:01:25;;;;;;;18.70;11.63;;;8.90;99.90;;;;;;1847942;76;21114;-76
2022/03/13 09:03:54;;;;;;;17.10;10.82;;;9.40;99.90;;;;;;1876816;76;21235;-75
2022/03/13 09:06:22;;;;;;;20.48;11.75;;;9.20;99.90;;;;;;1868731;74;21168;-76
2022/03/13 09:08:51;;;;;;;18.02;11.05;;;9.00;99.90;;;;;;1862395;76;21161;-75
2022/03/13 09:11:18;;;;;;;18.52;11.55;;;9.20;99.90;;;;;;1866118;76;21087;-75
2022/03/13 09:13:47;;;;;;;20.48;12.00;;;9.20;99.90;;;;;;1848126;76;21140;-76
2022/03/13 09:16:15;;;;;;;19.25;10.75;;;9.80;99.40;;;;;;1851269;76;21064;-76
2022/03/13 09:18:43;;;;;;;21.27;11.90;;;9.70;98.80;;;;;;1852112;76;21071;-75
2022/03/13 09:21:10;;;;;;;17.23;11.60;;;9.90;99.10;;;;;;1858674;76;21692;-77
2022/03/13 09:23:38;;;;;;;16.48;10.63;;;10.50;97.10;;;;;;1871922;76;21149;-76
2022/03/13 09:26:06;;;;;;;16.60;10.38;;;10.70;96.00;;;;;;1852331;76;21153;-78
2022/03/13 09:28:35;;;;;;;12.55;9.08;;;10.70;96.00;;;;;;1874731;76;21478;-77
2022/03/13 09:31:06;;;;;;;19.00;10.15;;;10.80;94.00;;;;;;1845989;76;21149;-77
2022/03/13 09:33:33;;;;;;;17.82;9.70;;;11.50;93.30;;;;;;1855945;76;21081;-77
2022/03/13 09:36:02;;;;;;;19.50;9.73;;;11.70;90.70;;;;;;1854279;76;21095;-78
2022/03/13 09:38:29;;;;;;;18.02;10.45;;;11.10;90.90;;;;;;1841313;76;21079;-77
2022/03/13 09:40:56;;;;;;;13.30;9.48;;;11.10;91.20;;;;;;1861104;75;21145;-77
2022/03/13 09:43:25;;;;;;;16.95;9.85;;;10.60;90.90;;;;;;1856532;76;21537;-77
2022/03/13 09:45:54;;;;;;;15.83;9.73;;;10.80;90.00;;;;;;1858971;76;21547;-77
2022/03/13 09:48:22;;;;;;;21.48;9.63;;;10.80;89.60;;;;;;1869361;76;21210;-77
2022/03/13 09:50:49;;;;;;;12.60;9.75;;;11.30;89.00;;;;;;1864556;74;21144;-78
2022/03/13 09:53:16;;;;;;;13.30;9.40;;;11.70;88.70;;;;;;1850188;76;21176;-77
2022/03/13 09:55:44;;;;;;;23.38;10.15;;;11.60;87.10;;;;;;1852448;76;21075;-78
2022/03/13 09:58:11;;;;;;;14.60;9.53;;;12.10;85.20;;;;;;1867007;76;21432;-77
2022/03/13 10:00:41;;;;;;;17.05;9.95;;;12.40;82.70;;;;;;1856506;76;21070;-78
2022/03/13 10:03:11;;;;;;;14.63;9.45;;;12.60;82.40;;;;;;1846167;76;21422;-77
2022/03/13 10:05:45;;;;;;;16.77;10.20;;;13.20;83.30;;;;;;1852513;76;21138;-77
2022/03/13 10:08:12;;;;;;;15.43;9.98;;;13.10;78.90;;;;;;1846129;76;21125;-77
2022/03/13 10:10:49;;;;;;;13.60;9.63;;;13.00;78.50;;;;;;1852373;76;21544;-77
2022/03/13 10:13:18;;;;;;;15.75;10.68;;;12.70;79.80;;;;;;1861693;76;21082;-78
2022/03/13 10:15:47;;;;;;;19.85;11.28;;;12.90;79.60;;;;;;1877133;76;21087;-78
2022/03/13 10:18:19;;;;;;;21.75;12.00;;;13.30;78.20;;;;;;1878742;76;21482;-77
2022/03/13 10:20:47;;;;;;;16.73;10.98;;;13.60;76.80;;;;;;1862191;76;21087;-77
2022/03/13 10:23:19;;;;;;;18.10;11.18;;;14.00;75.10;;;;;;1847799;76;21081;-77
2022/03/13 10:25:47;;;;;;;17.62;11.03;;;14.40;72.20;;;;;;1845974;76;21534;-78
2022/03/13 10:28:34;;;;;;;19.00;11.80;;;14.30;72.20;;;;;;1861089;76;21082;-78
2022/03/13 10:31:05;;;;;;;17.62;11.43;;;14.50;72.80;;;;;;1858927;75;21144;-77
2022/03/13 10:33:44;;;;;;;19.40;11.70;;;14.00;73.30;;;;;;1871813;76;21141;-76
2022/03/13 10:36:33;;;;;;;26.05;12.00;;;14.20;74.30;;;;;;1846010;76;21244;-77
2022/03/13 10:39:02;;;;;;;17.65;11.25;;;14.40;73.40;;;;;;1864284;76;21221;-77
2022/03/13 10:41:48;;;;;;;16.52;10.72;;;15.00;71.30;;;;;;1884882;76;21184;-77
2022/03/13 10:44:18;;;;;;;21.35;11.78;;;15.20;69.50;;;;;;1850339;76;21172;-78
2022/03/13 10:46:47;;;;;;;19.52;12.37;;;15.20;70.10;;;;;;1847434;76;21095;-77
2022/03/13 10:49:15;;;;;;;21.93;12.40;;;14.90;71.80;;;;;;1840848;76;21092;-77
2022/03/13 10:51:48;;;;;;;19.35;12.80;;;15.50;70.10;;;;;;1873476;75;21237;-78
2022/03/13 10:54:34;;;;;;;20.40;12.55;;;15.30;69.60;;;;;;1855404;75;21075;-77
2022/03/13 10:57:08;;;;;;;21.12;12.18;;;15.90;69.50;;;;;;1853399;76;21195;-77
2022/03/13 10:59:39;;;;;;;25.62;12.45;;;16.20;68.70;;;;;;1846689;76;21083;-78
2022/03/13 11:02:22;;;;;;;19.98;12.53;;;16.90;65.80;;;;;;1855077;76;21087;-78
2022/03/13 11:04:51;;;;;;;24.52;13.20;;;16.80;65.10;;;;;;1868227;74;21146;-79
2022/03/13 11:07:20;;;;;;;22.25;13.32;;;17.00;64.00;;;;;;1852341;76;21083;-78
2022/03/13 11:09:49;;;;;;;28.20;13.10;;;16.90;64.60;;;;;;1878919;76;21479;-77
2022/03/13 11:12:23;;;;;;;27.00;12.82;;;16.60;64.30;;;;;;1846911;76;21150;-77
2022/03/13 11:14:49;;;;;;;20.57;13.88;;;16.50;65.10;;;;;;1852133;76;21059;-77
2022/03/13 11:17:21;;;;;;;20.10;12.75;;;16.70;64.80;;;;;;1846793;76;21055;-77
2022/03/13 11:19:53;;;;;;;26.20;13.88;;;16.70;63.90;;;;;;1861802;76;21148;-77
2022/03/13 11:22:20;;;;;;;25.32;14.23;;;17.20;62.90;;;;;;1854626;76;21210;-78
2022/03/13 11:24:51;;;;;;;18.33;12.90;;;17.00;62.60;;;;;;1873065;76;21156;-77
2022/03/13 11:27:19;;;;;;;20.20;12.90;;;17.30;63.20;;;;;;1857594;75;21087;-78
2022/03/13 11:29:47;;;;;;;23.85;13.85;;;18.20;60.60;;;;;;1848922;76;21082;-78
2022/03/13 11:32:47;;;;;;;20.72;12.82;;;18.20;59.00;;;;;;1853423;76;21196;-77
2022/03/13 11:35:18;;;;;;;19.25;13.00;;;18.40;59.20;;;;;;1866576;76;21141;-78
2022/03/13 11:37:48;;;;;;;22.37;13.28;;;18.90;57.70;;;;;;1850128;75;21134;-79
2022/03/13 11:40:21;;;;;;;20.20;13.58;;;19.20;57.50;;;;;;1849545;76;21087;-78
2022/03/13 11:42:50;;;;;;;21.37;13.45;;;19.10;56.60;;;;;;1826597;76;21439;-76
2022/03/13 11:45:35;;;;;;;25.95;12.63;;;18.30;57.50;;;;;;1824102;77;21087;-77
2022/03/13 11:48:19;;;;;;;23.18;13.00;;;18.30;57.60;;;;;;1854601;76;21188;-78
2022/03/13 11:50:52;;;;;;;20.15;13.03;;;18.50;57.40;;;;;;1844974;76;21133;-78
2022/03/13 11:53:23;;;;;;;27.90;13.80;;;19.10;56.50;;;;;;1851361;76;21604;-77
2022/03/13 11:56:10;;;;;;;18.70;13.18;;;19.40;56.20;;;;;;1875526;75;21075;-78
2022/03/13 11:58:45;;;;;;;18.62;12.20;;;19.90;54.40;;;;;;1858793;76;21127;-76
2022/03/13 12:01:22;;;;;;;16.87;12.68;;;19.00;55.20;;;;;;1876136;74;21178;-76
2022/03/13 12:04:14;;;;;;;20.00;13.32;;;19.10;55.50;;;;;;1872211;76;21484;-78
2022/03/13 12:06:49;;;;;;;20.35;12.73;;;19.20;55.60;;;;;;1854711;76;21059;-78
2022/03/13 12:09:17;;;;;;;19.82;13.20;;;19.70;55.30;;;;;;1854056;76;21071;-77
2022/03/13 12:11:46;;;;;;;18.60;12.20;;;19.80;54.50;;;;;;1858286;75;21470;-78
2022/03/13 12:14:15;;;;;;;22.70;12.98;;;20.00;53.70;;;;;;1862634;74;21157;-78
2022/03/13 12:16:43;;;;;;;20.12;12.88;;;20.60;52.60;;;;;;1858762;75;21102;-78
2022/03/13 12:19:10;;;;;;;19.45;13.22;;;19.50;54.30;;;;;;1859060;76;21136;-78
2022/03/13 12:21:39;;;;;;;26.40;13.55;;;19.60;54.00;;;;;;1856339;76;21157;-79
2022/03/13 12:24:16;;;;;;;23.98;13.68;;;20.00;52.70;;;;;;1838153;77;21086;-78
2022/03/13 12:26:45;;;;;;;22.60;13.32;;;19.10;53.90;;;;;;1846480;76;21082;-78
2022/03/13 12:29:17;;;;;;;24.37;13.35;;;18.80;54.50;;;;;;1846446;76;21253;-78
2022/03/13 12:31:48;;;;;;;33.63;18.50;;;18.70;55.40;;;;;;1857106;76;21271;-77
2022/03/13 12:34:26;;;;;;;20.02;12.58;;;19.80;54.10;;;;;;1870871;76;21156;-77
2022/03/13 12:36:54;;;;;;;26.42;13.40;;;20.60;52.60;;;;;;1860624;76;21466;-79
2022/03/13 12:39:21;;;;;;;26.35;13.38;;;20.50;53.20;;;;;;1852842;76;21051;-78
2022/03/13 12:41:58;;;;;;;20.95;13.50;;;21.00;52.10;;;;;;1846412;76;21078;-78
2022/03/13 12:44:27;;;;;;;22.30;13.88;;;20.80;52.40;;;;;;1870132;76;21087;-78